Time;durP1;ratioP1;P1;durP2;ratioP2;P2;SDS_P1;SDS_P2;PMS_P1;PMS_P2;Temp;Humidity;BMP_temperature;BMP_pressure;BME280_temperature;BME280_humidity;BME280_pressure;Samples;Min_cycle;Max_cycle;Signal;HPM_P1;HPM_P2
2021/08/21 00:02:20;;;;;;;;;;;16.80;99.90;;;;;;4966506;28;20274;-83
2021/08/21 00:04:47;;;;;;;;;;;16.80;99.90;;;;;;4972384;28;20559;-84
2021/08/21 00:07:13;;;;;;;;;;;16.70;99.90;;;;;;4971181;28;19976;-83
2021/08/21 00:09:39;;;;;;;;;;;16.70;99.90;;;;;;4971855;28;19922;-83
2021/08/21 00:12:05;;;;;;;;;;;16.70;99.90;;;;;;4967477;28;19926;-83
2021/08/21 00:14:31;;;;;;;;;;;16.70;99.90;;;;;;4971376;28;19980;-83
2021/08/21 00:16:57;;;;;;;;;;;16.70;99.90;;;;;;4971429;28;19926;-83
2021/08/21 00:19:23;;;;;;;;;;;16.70;99.90;;;;;;4988890;28;19922;-83
2021/08/21 00:21:48;;;;;;;;;;;16.70;99.90;;;;;;4988352;28;19924;-83
2021/08/21 00:24:14;;;;;;;;;;;16.60;99.90;;;;;;4981142;28;19926;-83
2021/08/21 00:26:40;;;;;;;;;;;16.60;99.90;;;;;;4982691;28;19922;-83
2021/08/21 00:29:05;;;;;;;;;;;16.50;99.90;;;;;;4960523;28;19925;-84
2021/08/21 00:31:32;;;;;;;;;;;16.50;99.90;;;;;;4968012;28;19930;-82
2021/08/21 00:33:57;;;;;;;;;;;16.50;99.90;;;;;;4962607;28;19930;-83
2021/08/21 00:36:23;;;;;;;;;;;16.50;99.90;;;;;;4977472;28;20016;-83
2021/08/21 00:38:49;;;;;;;;;;;16.50;99.90;;;;;;4990885;28;19926;-83
2021/08/21 00:41:15;;;;;;;;;;;16.50;99.90;;;;;;4963198;28;20412;-83
2021/08/21 00:43:40;;;;;;;;;;;16.50;99.90;;;;;;4962158;28;20024;-82
2021/08/21 00:46:06;;;;;;;;;;;16.50;99.90;;;;;;4963873;28;20004;-83
2021/08/21 00:48:32;;;;;;;;;;;16.60;99.90;;;;;;4934722;28;20267;-83
2021/08/21 00:51:01;;;;;;;;;;;16.60;99.90;;;;;;4965296;28;19932;-83
2021/08/21 00:53:28;;;;;;;;;;;16.60;99.90;;;;;;4942881;28;20384;-83
2021/08/21 00:55:54;;;;;;;;;;;16.60;99.90;;;;;;4943430;28;19926;-83
2021/08/21 00:58:20;;;;;;;;;;;16.70;99.90;;;;;;4958532;28;20610;-83
2021/08/21 01:00:46;;;;;;;;;;;16.70;99.90;;;;;;4959073;28;19926;-83
2021/08/21 01:03:12;;;;;;;;;;;16.70;99.90;;;;;;4962799;28;19926;-84
2021/08/21 01:05:37;;;;;;;;;;;16.70;99.90;;;;;;4961126;28;20020;-83
2021/08/21 01:10:56;;;;;;;;;;;16.70;99.90;;;;;;4955378;28;19933;-83
2021/08/21 01:13:55;;;;;;;;;;;;;;;;;;;;;
2021/08/21 01:16:22;;;;;;;;;;;16.70;99.90;;;;;;4962967;28;19926;-83
2021/08/21 01:18:48;;;;;;;;;;;16.70;99.90;;;;;;4960876;28;19944;-84
2021/08/21 01:21:14;;;;;;;;;;;16.80;99.90;;;;;;4962044;28;20394;-84
2021/08/21 01:23:40;;;;;;;;;;;16.80;99.90;;;;;;4994386;28;19929;-82
2021/08/21 01:26:09;;;;;;;;;;;16.80;99.90;;;;;;4962884;28;19958;-83
2021/08/21 01:28:34;;;;;;;;;;;16.90;99.90;;;;;;4962354;28;19927;-84
2021/08/21 01:31:02;;;;;;;;;;;16.80;99.90;;;;;;4976769;28;19930;-83
2021/08/21 01:33:29;;;;;;;;;;;16.80;99.90;;;;;;4960184;28;20390;-83
2021/08/21 01:35:54;;;;;;;;;;;16.90;99.90;;;;;;4950483;28;19973;-82
2021/08/21 01:38:20;;;;;;;;;;;16.90;99.90;;;;;;4961588;28;20294;-83
2021/08/21 01:40:49;;;;;;;;;;;16.90;99.90;;;;;;4968252;28;19926;-83
2021/08/21 01:43:15;;;;;;;;;;;16.90;99.90;;;;;;4968149;28;19926;-83
2021/08/21 01:45:43;;;;;;;;;;;16.90;99.90;;;;;;4950536;28;20682;-83
2021/08/21 01:48:08;;;;;;;;;;;16.90;99.90;;;;;;4948806;28;19985;-82
2021/08/21 01:50:34;;;;;;;;;;;16.90;99.90;;;;;;4967696;28;19922;-83
2021/08/21 01:53:00;;;;;;;;;;;16.90;99.90;;;;;;4951674;28;19926;-83
2021/08/21 01:55:29;;;;;;;;;;;16.90;99.90;;;;;;4964170;28;19926;-83
2021/08/21 01:57:55;;;;;;;;;;;16.90;99.90;;;;;;4956597;28;20335;-81
2021/08/21 02:00:27;;;;;;;;;;;16.90;99.90;;;;;;4963813;28;19926;-81
2021/08/21 02:02:57;;;;;;;;;;;16.90;99.90;;;;;;4962083;28;19985;-81
2021/08/21 02:05:23;;;;;;;;;;;16.90;99.90;;;;;;4967076;28;20388;-81
2021/08/21 02:07:49;;;;;;;;;;;16.90;99.90;;;;;;4961499;28;19923;-79
2021/08/21 02:10:16;;;;;;;;;;;16.90;99.90;;;;;;4960012;28;19979;-80
2021/08/21 02:12:42;;;;;;;;;;;16.80;99.90;;;;;;4961416;28;19926;-81
2021/08/21 02:15:13;;;;;;;;;;;16.80;99.90;;;;;;4964287;28;20041;-81
2021/08/21 02:17:38;;;;;;;;;;;16.90;99.90;;;;;;4961154;28;19926;-81
2021/08/21 02:20:11;;;;;;;;;;;16.90;99.90;;;;;;4969028;28;20408;-80
2021/08/21 02:22:37;;;;;;;;;;;16.80;99.90;;;;;;4971696;28;19926;-80
2021/08/21 02:25:03;;;;;;;;;;;16.80;99.90;;;;;;4961807;28;19922;-81
2021/08/21 02:27:36;;;;;;;;;;;16.80;99.90;;;;;;4964758;28;19927;-80
2021/08/21 02:30:02;;;;;;;;;;;16.70;99.90;;;;;;4962207;28;19927;-80
2021/08/21 02:32:28;;;;;;;;;;;16.70;99.90;;;;;;4947734;28;20350;-80
2021/08/21 02:34:54;;;;;;;;;;;16.70;99.90;;;;;;4946328;28;20029;-80
2021/08/21 02:37:20;;;;;;;;;;;16.70;99.90;;;;;;4964653;28;20551;-80
2021/08/21 02:39:46;;;;;;;;;;;16.60;99.90;;;;;;4963772;28;19929;-80
2021/08/21 02:42:12;;;;;;;;;;;16.70;99.90;;;;;;4962219;28;19926;-80
2021/08/21 02:44:37;;;;;;;;;;;16.70;99.90;;;;;;4963998;28;19926;-80
2021/08/21 02:47:03;;;;;;;;;;;16.70;99.90;;;;;;4965628;28;19925;-80
2021/08/21 02:49:29;;;;;;;;;;;16.70;99.90;;;;;;4982439;28;19937;-80
2021/08/21 02:51:55;;;;;;;;;;;16.70;99.90;;;;;;4967624;28;19925;-81
2021/08/21 02:54:20;;;;;;;;;;;16.60;99.90;;;;;;4962306;28;19937;-80
2021/08/21 02:56:46;;;;;;;;;;;16.60;99.90;;;;;;4982867;28;19979;-81
2021/08/21 02:59:12;;;;;;;;;;;16.60;99.90;;;;;;4950504;28;19930;-81
2021/08/21 03:01:37;;;;;;;;;;;16.70;99.90;;;;;;4947592;28;20025;-80
2021/08/21 03:04:03;;;;;;;;;;;16.60;99.90;;;;;;4951858;28;19933;-81
2021/08/21 03:06:29;;;;;;;;;;;16.70;99.90;;;;;;4950749;28;19946;-81
2021/08/21 03:08:55;;;;;;;;;;;16.60;99.90;;;;;;4949579;28;19922;-80
2021/08/21 03:11:20;;;;;;;;;;;16.60;99.90;;;;;;4969022;28;19930;-80
2021/08/21 03:13:46;;;;;;;;;;;16.70;99.90;;;;;;4965214;28;19926;-81
2021/08/21 03:16:12;;;;;;;;;;;16.60;99.90;;;;;;4949041;28;19926;-79
2021/08/21 03:18:38;;;;;;;;;;;16.60;99.90;;;;;;4953810;28;19926;-81
2021/08/21 03:21:04;;;;;;;;;;;16.70;99.90;;;;;;4983414;28;19928;-81
2021/08/21 03:23:31;;;;;;;;;;;16.60;99.90;;;;;;4964281;28;19926;-81
2021/08/21 03:25:56;;;;;;;;;;;16.70;99.90;;;;;;4948130;28;20312;-80
2021/08/21 03:28:22;;;;;;;;;;;16.60;99.90;;;;;;4949546;28;19980;-80
2021/08/21 03:30:48;;;;;;;;;;;16.60;99.90;;;;;;4967498;28;19930;-80
2021/08/21 03:33:13;;;;;;;;;;;16.60;99.90;;;;;;4965234;28;19927;-80
2021/08/21 03:35:41;;;;;;;;;;;16.70;99.90;;;;;;4954954;28;19934;-80
2021/08/21 03:38:07;;;;;;;;;;;16.70;99.90;;;;;;4982172;28;19926;-80
2021/08/21 03:40:33;;;;;;;;;;;16.70;99.90;;;;;;4948697;28;19928;-81
2021/08/21 03:42:59;;;;;;;;;;;16.60;99.90;;;;;;4963656;28;19925;-80
2021/08/21 03:45:24;;;;;;;;;;;16.70;99.90;;;;;;4962320;28;19926;-81
2021/08/21 03:47:50;;;;;;;;;;;16.60;99.90;;;;;;4967270;28;20393;-80
2021/08/21 03:50:17;;;;;;;;;;;16.60;99.90;;;;;;4968923;28;19930;-80
2021/08/21 03:52:43;;;;;;;;;;;16.60;99.90;;;;;;4968255;28;19926;-80
2021/08/21 03:55:08;;;;;;;;;;;16.60;99.90;;;;;;4951607;28;19930;-81
2021/08/21 03:57:35;;;;;;;;;;;16.50;99.90;;;;;;4968612;28;19976;-81
2021/08/21 04:00:02;;;;;;;;;;;16.50;99.90;;;;;;4967633;28;19930;-80
2021/08/21 04:02:28;;;;;;;;;;;16.50;99.90;;;;;;4965336;28;19969;-80
2021/08/21 04:04:54;;;;;;;;;;;16.60;99.90;;;;;;4968380;28;19964;-80
2021/08/21 04:07:19;;;;;;;;;;;16.60;99.90;;;;;;4967043;28;19933;-81
2021/08/21 04:09:45;;;;;;;;;;;16.60;99.90;;;;;;4966250;28;20000;-81
2021/08/21 04:12:14;;;;;;;;;;;16.60;99.90;;;;;;4967795;28;20440;-80
2021/08/21 04:14:39;;;;;;;;;;;16.50;99.90;;;;;;4966995;28;19922;-81
2021/08/21 04:17:05;;;;;;;;;;;16.50;99.90;;;;;;4964269;28;19928;-80
2021/08/21 04:19:31;;;;;;;;;;;16.60;99.90;;;;;;4967131;28;19926;-80
2021/08/21 04:21:56;;;;;;;;;;;16.60;99.90;;;;;;4950481;28;20412;-80
2021/08/21 04:24:22;;;;;;;;;;;16.60;99.90;;;;;;4951269;28;19926;-80
2021/08/21 04:26:48;;;;;;;;;;;16.60;99.90;;;;;;4966684;28;19926;-80
2021/08/21 04:29:13;;;;;;;;;;;16.50;99.90;;;;;;4950817;28;19930;-81
2021/08/21 04:31:40;;;;;;;;;;;16.60;99.90;;;;;;4965954;28;19977;-81
2021/08/21 04:34:05;;;;;;;;;;;16.60;99.90;;;;;;4964548;28;19922;-80
2021/08/21 04:36:32;;;;;;;;;;;16.50;99.90;;;;;;4965816;28;20353;-80
2021/08/21 04:38:57;;;;;;;;;;;16.50;99.90;;;;;;4950660;28;19930;-81
2021/08/21 04:41:23;;;;;;;;;;;16.60;99.90;;;;;;4950247;28;19926;-80
2021/08/21 04:43:49;;;;;;;;;;;16.60;99.90;;;;;;4950850;28;19926;-80
2021/08/21 04:46:15;;;;;;;;;;;16.60;99.90;;;;;;4606524;28;10610342;-81
2021/08/21 04:48:42;;;;;;;;;;;16.50;99.90;;;;;;4962526;28;19976;-81
2021/08/21 04:51:07;;;;;;;;;;;16.60;99.90;;;;;;4947416;28;20029;-81
2021/08/21 04:53:33;;;;;;;;;;;16.60;99.90;;;;;;4981747;28;19983;-80
2021/08/21 04:55:59;;;;;;;;;;;16.60;99.90;;;;;;4962342;28;19926;-80
2021/08/21 04:58:24;;;;;;;;;;;16.60;99.90;;;;;;4979356;28;19929;-80
2021/08/21 05:00:50;;;;;;;;;;;16.60;99.90;;;;;;4980488;28;19971;-81
2021/08/21 05:03:16;;;;;;;;;;;16.60;99.90;;;;;;4998999;28;19926;-80
2021/08/21 05:05:43;;;;;;;;;;;16.60;99.90;;;;;;4985720;28;20313;-80
2021/08/21 05:08:09;;;;;;;;;;;16.60;99.90;;;;;;4961771;28;19971;-80
2021/08/21 05:10:35;;;;;;;;;;;16.60;99.90;;;;;;4958857;28;19930;-81
2021/08/21 05:13:01;;;;;;;;;;;16.70;99.90;;;;;;4971834;28;20012;-81
2021/08/21 05:15:26;;;;;;;;;;;16.70;99.90;;;;;;4955886;28;21447;-80
2021/08/21 05:17:54;;;;;;;;;;;16.70;99.90;;;;;;4971902;28;19926;-81
2021/08/21 05:20:28;;;;;;;;;;;16.70;99.90;;;;;;4956230;28;20297;-80
2021/08/21 05:23:08;;;;;;;;;;;16.70;99.90;;;;;;4972864;28;19933;-81
2021/08/21 05:25:46;;;;;;;;;;;16.70;99.90;;;;;;4955837;28;19926;-81
2021/08/21 05:28:12;;;;;;;;;;;16.80;99.90;;;;;;4971857;28;20017;-80
2021/08/21 05:30:38;;;;;;;;;;;16.80;99.90;;;;;;4987439;28;19933;-81
2021/08/21 05:33:11;;;;;;;;;;;16.80;99.90;;;;;;4971851;28;20016;-81
2021/08/21 05:35:38;;;;;;;;;;;16.90;99.90;;;;;;4956028;28;19932;-80
2021/08/21 05:38:04;;;;;;;;;;;16.90;99.90;;;;;;4988590;28;19937;-81
2021/08/21 05:40:30;;;;;;;;;;;16.90;99.90;;;;;;4971370;28;19922;-80
2021/08/21 05:42:56;;;;;;;;;;;16.90;99.90;;;;;;4970861;28;19925;-80
2021/08/21 05:45:22;;;;;;;;;;;16.90;99.90;;;;;;4988803;28;19925;-80
2021/08/21 05:47:48;;;;;;;;;;;16.90;99.90;;;;;;4972287;28;19940;-81
2021/08/21 05:50:14;;;;;;;;;;;16.90;99.90;;;;;;4958702;28;20024;-80
2021/08/21 05:52:40;;;;;;;;;;;16.90;99.90;;;;;;4974977;28;19957;-81
2021/08/21 05:55:06;;;;;;;;;;;17.00;99.90;;;;;;4970502;28;20311;-81
2021/08/21 05:57:32;;;;;;;;;;;17.00;99.90;;;;;;4956426;28;19925;-80
2021/08/21 05:59:57;;;;;;;;;;;17.10;99.90;;;;;;4988767;28;20157;-80
2021/08/21 06:02:25;;;;;;;;;;;17.10;99.90;;;;;;4987147;28;20381;-80
2021/08/21 06:04:51;;;;;;;;;;;17.10;99.90;;;;;;4982792;28;19960;-80
2021/08/21 06:07:17;;;;;;;;;;;17.10;99.90;;;;;;4999193;28;19933;-81
2021/08/21 06:09:43;;;;;;;;;;;17.20;99.90;;;;;;4957947;28;19922;-81
2021/08/21 06:12:08;;;;;;;;;;;17.20;99.90;;;;;;4967133;28;19929;-81
2021/08/21 06:14:37;;;;;;;;;;;17.20;99.90;;;;;;4973056;28;20039;-80
2021/08/21 06:17:07;;;;;;;;;;;17.30;99.90;;;;;;4972951;28;19948;-80
2021/08/21 06:19:32;;;;;;;;;;;17.30;99.90;;;;;;4972479;28;20411;-80
2021/08/21 06:21:58;;;;;;;;;;;17.30;99.90;;;;;;4956198;28;20025;-80
2021/08/21 06:24:24;;;;;;;;;;;17.30;99.90;;;;;;4989042;28;19926;-81
2021/08/21 06:26:49;;;;;;;;;;;17.40;99.90;;;;;;4989509;28;20020;-81
2021/08/21 06:29:15;;;;;;;;;;;17.40;99.90;;;;;;4971716;28;20369;-80
2021/08/21 06:31:41;;;;;;;;;;;17.50;99.90;;;;;;4953874;28;20320;-80
2021/08/21 06:34:06;;;;;;;;;;;17.60;99.90;;;;;;4970330;28;19929;-81
2021/08/21 06:36:32;;;;;;;;;;;17.60;99.90;;;;;;4972518;28;19925;-81
2021/08/21 06:38:58;;;;;;;;;;;17.60;99.90;;;;;;4972545;28;19928;-81
2021/08/21 06:41:24;;;;;;;;;;;17.60;99.90;;;;;;4958922;28;20122;-81
2021/08/21 06:43:49;;;;;;;;;;;17.60;99.90;;;;;;4991171;28;20372;-81
2021/08/21 06:46:15;;;;;;;;;;;17.60;99.90;;;;;;4963800;28;19973;-81
2021/08/21 06:48:41;;;;;;;;;;;17.70;99.90;;;;;;4953294;28;19930;-82
2021/08/21 06:51:07;;;;;;;;;;;17.60;99.90;;;;;;4945184;28;19984;-82
2021/08/21 06:53:33;;;;;;;;;;;17.70;99.90;;;;;;4967696;28;19925;-81
2021/08/21 06:56:01;;;;;;;;;;;17.60;99.90;;;;;;4979428;28;19926;-82
2021/08/21 06:58:28;;;;;;;;;;;17.70;99.90;;;;;;4958655;28;19980;-82
2021/08/21 07:00:54;;;;;;;;;;;17.70;99.90;;;;;;4979199;28;19949;-82
2021/08/21 07:03:20;;;;;;;;;;;17.70;99.90;;;;;;4973189;28;20017;-81
2021/08/21 07:05:46;;;;;;;;;;;17.80;99.90;;;;;;4943087;28;20489;-82
2021/08/21 07:08:11;;;;;;;;;;;17.80;99.90;;;;;;4973107;28;19926;-81
2021/08/21 07:10:37;;;;;;;;;;;17.80;99.90;;;;;;4940621;28;19968;-82
2021/08/21 07:13:03;;;;;;;;;;;17.80;99.90;;;;;;4946481;28;20401;-82
2021/08/21 07:15:29;;;;;;;;;;;17.90;99.90;;;;;;4961023;28;20106;-81
2021/08/21 07:17:54;;;;;;;;;;;17.90;99.90;;;;;;4968755;28;20456;-82
2021/08/21 07:20:20;;;;;;;;;;;17.90;99.90;;;;;;4968647;28;19922;-82
2021/08/21 07:22:46;;;;;;;;;;;17.90;99.90;;;;;;4960414;28;19933;-81
2021/08/21 07:25:11;;;;;;;;;;;17.90;99.90;;;;;;4969344;28;20405;-82
2021/08/21 07:27:39;;;;;;;;;;;17.90;99.90;;;;;;4972301;28;19921;-82
2021/08/21 07:30:05;;;;;;;;;;;17.90;99.90;;;;;;4985613;28;20293;-82
2021/08/21 07:32:31;;;;;;;;;;;18.00;99.90;;;;;;4955148;28;20344;-82
2021/08/21 07:34:57;;;;;;;;;;;18.00;99.90;;;;;;4968264;28;19930;-82
2021/08/21 07:37:23;;;;;;;;;;;18.00;99.90;;;;;;4936217;28;19977;-82
2021/08/21 07:39:49;;;;;;;;;;;18.00;99.90;;;;;;4969184;28;20440;-82
2021/08/21 07:42:15;;;;;;;;;;;18.00;99.90;;;;;;4971717;28;20431;-81
2021/08/21 07:44:41;;;;;;;;;;;18.00;99.90;;;;;;4967352;28;19922;-82
2021/08/21 07:47:07;;;;;;;;;;;18.00;99.90;;;;;;4954828;28;19941;-82
2021/08/21 07:49:33;;;;;;;;;;;18.00;99.90;;;;;;5004535;28;20405;-82
2021/08/21 07:51:59;;;;;;;;;;;18.00;99.90;;;;;;4990101;28;19960;-81
2021/08/21 07:54:24;;;;;;;;;;;18.10;99.90;;;;;;4971575;28;19953;-81
2021/08/21 07:56:50;;;;;;;;;;;18.10;99.90;;;;;;4970926;28;20292;-81
2021/08/21 07:59:16;;;;;;;;;;;18.10;99.90;;;;;;4989378;28;19933;-82
2021/08/21 08:01:42;;;;;;;;;;;18.20;99.90;;;;;;4974208;28;19980;-82
2021/08/21 08:04:07;;;;;;;;;;;18.20;99.90;;;;;;4975953;28;19932;-82
2021/08/21 08:06:33;;;;;;;;;;;18.20;99.90;;;;;;4970650;28;19928;-81
2021/08/21 08:08:59;;;;;;;;;;;18.30;99.90;;;;;;4937716;28;20301;-82
2021/08/21 08:11:25;;;;;;;;;;;18.30;99.90;;;;;;4954475;28;19926;-81
2021/08/21 08:13:51;;;;;;;;;;;18.30;99.90;;;;;;4969719;28;19929;-82
2021/08/21 08:16:17;;;;;;;;;;;18.40;99.90;;;;;;4970912;28;20017;-82
2021/08/21 08:18:42;;;;;;;;;;;18.40;99.90;;;;;;4971644;28;19926;-82
2021/08/21 08:21:10;;;;;;;;;;;18.40;99.90;;;;;;4953935;28;20366;-82
2021/08/21 08:23:35;;;;;;;;;;;18.40;99.90;;;;;;4969478;28;20407;-82
2021/08/21 08:26:01;;;;;;;;;;;18.40;99.90;;;;;;4970621;28;19922;-81
2021/08/21 08:28:27;;;;;;;;;;;18.40;99.90;;;;;;4954259;28;20289;-81
2021/08/21 08:30:54;;;;;;;;;;;18.40;99.90;;;;;;4964199;28;20372;-81
2021/08/21 08:33:29;;;;;;;;;;;18.40;99.90;;;;;;4949969;28;19932;-81
2021/08/21 08:35:55;;;;;;;;;;;18.50;99.90;;;;;;4965281;28;20310;-81
2021/08/21 08:38:21;;;;;;;;;;;18.50;99.90;;;;;;4983291;28;19937;-82
2021/08/21 08:40:48;;;;;;;;;;;18.50;99.90;;;;;;4968254;28;19930;-84
2021/08/21 08:43:14;;;;;;;;;;;18.50;99.90;;;;;;4968718;28;19921;-82
2021/08/21 08:48:44;;;;;;;;;;;18.50;99.90;;;;;;4967083;28;20055;-82
2021/08/21 08:51:11;;;;;;;;;;;18.50;99.90;;;;;;4951182;28;19933;-83
2021/08/21 08:53:37;;;;;;;;;;;18.60;99.90;;;;;;4952313;28;19929;-83
2021/08/21 08:56:04;;;;;;;;;;;18.60;99.90;;;;;;4949372;28;19943;-82
2021/08/21 08:58:30;;;;;;;;;;;18.70;99.90;;;;;;4982836;28;19925;-84
2021/08/21 09:00:56;;;;;;;;;;;18.70;99.90;;;;;;4985780;28;19941;-84
2021/08/21 09:03:23;;;;;;;;;;;18.70;99.90;;;;;;4954477;28;20393;-83
2021/08/21 09:05:49;;;;;;;;;;;18.80;99.90;;;;;;4982029;28;19933;-84
2021/08/21 09:08:28;;;;;;;;;;;18.80;99.90;;;;;;4953587;28;19976;-84
2021/08/21 09:10:55;;;;;;;;;;;18.80;99.90;;;;;;4947420;28;19925;-84
2021/08/21 09:13:21;;;;;;;;;;;18.90;99.90;;;;;;4970727;28;19969;-84
2021/08/21 09:16:02;;;;;;;;;;;18.90;99.90;;;;;;4989352;28;20456;-83
2021/08/21 09:18:31;;;;;;;;;;;18.90;99.90;;;;;;4970633;28;19928;-84
2021/08/21 09:20:57;;;;;;;;;;;19.00;99.90;;;;;;4953705;28;19932;-84
2021/08/21 09:23:27;;;;;;;;;;;19.00;99.90;;;;;;4984047;28;19926;-84
2021/08/21 09:25:54;;;;;;;;;;;19.00;99.90;;;;;;4974242;28;19933;-83
2021/08/21 09:28:27;;;;;;;;;;;19.00;99.90;;;;;;4971082;28;19933;-83
2021/08/21 09:31:03;;;;;;;;;;;19.00;99.90;;;;;;4972941;28;19925;-85
2021/08/21 09:33:29;;;;;;;;;;;19.00;99.90;;;;;;4979789;28;19938;-84
2021/08/21 09:35:55;;;;;;;;;;;19.00;99.90;;;;;;4955472;28;19926;-84
2021/08/21 09:38:27;;;;;;;;;;;19.00;99.90;;;;;;4975028;28;19977;-84
2021/08/21 09:40:57;;;;;;;;;;;19.00;99.90;;;;;;4939534;28;19973;-86
2021/08/21 09:43:26;;;;;;;;;;;19.00;99.90;;;;;;4971459;28;19922;-84
2021/08/21 09:46:06;;;;;;;;;;;19.00;99.90;;;;;;4989413;28;20043;-83
2021/08/21 09:48:32;;;;;;;;;;;19.10;99.90;;;;;;4977618;28;19929;-84
2021/08/21 09:50:58;;;;;;;;;;;19.20;99.90;;;;;;4973816;28;19925;-83
2021/08/21 09:53:34;;;;;;;;;;;19.30;99.90;;;;;;4972802;28;20278;-85
2021/08/21 09:56:10;;;;;;;;;;;19.30;99.90;;;;;;4989792;28;20424;-84
2021/08/21 09:58:35;;;;;;;;;;;19.40;99.90;;;;;;4970570;28;20008;-84
2021/08/21 10:01:05;;;;;;;;;;;19.50;99.90;;;;;;4956018;28;20020;-83
2021/08/21 10:03:31;;;;;;;;;;;19.50;99.90;;;;;;4968201;28;19926;-84
2021/08/21 10:06:00;;;;;;;;;;;19.50;99.90;;;;;;4985284;28;20013;-84
2021/08/21 10:08:28;;;;;;;;;;;19.50;99.90;;;;;;4931232;28;20032;-83
2021/08/21 10:10:55;;;;;;;;;;;19.60;99.90;;;;;;4952562;28;19925;-85
2021/08/21 10:13:32;;;;;;;;;;;19.60;99.90;;;;;;4957504;28;19922;-83
2021/08/21 10:15:58;;;;;;;;;;;19.50;99.90;;;;;;4967929;28;19931;-83
2021/08/21 10:18:24;;;;;;;;;;;19.40;99.90;;;;;;4945833;28;20404;-83
2021/08/21 10:20:50;;;;;;;;;;;19.40;99.90;;;;;;4980997;28;19997;-83
2021/08/21 10:23:18;;;;;;;;;;;19.40;99.90;;;;;;4961601;28;20416;-83
2021/08/21 10:25:54;;;;;;;;;;;19.50;99.90;;;;;;4962272;28;19929;-84
2021/08/21 10:28:21;;;;;;;;;;;19.60;99.90;;;;;;4938311;28;19922;-84
2021/08/21 10:30:47;;;;;;;;;;;19.70;99.90;;;;;;4937104;28;20674;-83
2021/08/21 10:33:14;;;;;;;;;;;19.70;99.90;;;;;;4963631;28;19981;-83
2021/08/21 10:35:45;;;;;;;;;;;19.80;99.90;;;;;;4979857;28;20030;-84
2021/08/21 10:38:30;;;;;;;;;;;19.80;99.90;;;;;;4962168;28;19933;-84
2021/08/21 10:40:57;;;;;;;;;;;19.80;99.90;;;;;;4969058;28;20632;-84
2021/08/21 10:43:41;;;;;;;;;;;19.90;99.90;;;;;;4970014;28;20472;-83
2021/08/21 10:46:07;;;;;;;;;;;20.00;99.90;;;;;;4985779;28;19940;-84
2021/08/21 10:48:36;;;;;;;;;;;20.00;99.90;;;;;;4963243;28;20301;-84
2021/08/21 10:51:05;;;;;;;;;;;20.10;99.90;;;;;;4960996;28;19970;-84
2021/08/21 10:53:32;;;;;;;;;;;20.20;99.90;;;;;;4958258;28;19930;-83
2021/08/21 10:55:59;;;;;;;;;;;20.20;99.90;;;;;;4961262;28;19922;-83
2021/08/21 10:58:26;;;;;;;;;;;20.30;99.90;;;;;;4960151;28;19923;-83
2021/08/21 11:00:53;;;;;;;;;;;20.30;99.90;;;;;;4958275;28;19946;-83
2021/08/21 11:03:24;;;;;;;;;;;20.30;99.90;;;;;;4960847;28;19926;-83
2021/08/21 11:06:04;;;;;;;;;;;20.30;99.90;;;;;;4963769;28;20306;-84
2021/08/21 11:08:30;;;;;;;;;;;20.40;99.90;;;;;;4960142;28;19926;-83
2021/08/21 11:11:28;;;;;;;;;;;20.40;99.90;;;;;;4975604;28;19925;-83
2021/08/21 11:17:00;;;;;;;;;;;20.30;99.90;;;;;;4961145;28;19925;-83
2021/08/21 11:19:30;;;;;;;;;;;20.30;99.90;;;;;;4961779;28;19926;-84
2021/08/21 11:22:08;;;;;;;;;;;20.40;99.90;;;;;;4958389;28;19926;-84
2021/08/21 11:24:34;;;;;;;;;;;20.40;99.90;;;;;;4983759;28;19929;-84
2021/08/21 11:27:18;;;;;;;;;;;20.50;99.90;;;;;;4961897;28;19925;-84
2021/08/21 11:30:03;;;;;;;;;;;20.50;99.90;;;;;;4963281;28;19922;-84
2021/08/21 11:32:29;;;;;;;;;;;20.60;99.90;;;;;;4964835;28;19984;-83
2021/08/21 11:34:56;;;;;;;;;;;20.60;99.90;;;;;;4942736;28;20627;-83
2021/08/21 11:37:22;;;;;;;;;;;20.70;99.90;;;;;;4959185;28;19933;-84
2021/08/21 11:39:54;;;;;;;;;;;20.70;99.90;;;;;;4944664;28;19926;-83
2021/08/21 11:42:20;;;;;;;;;;;20.70;99.90;;;;;;4957176;28;20298;-83
2021/08/21 11:44:55;;;;;;;;;;;20.70;99.90;;;;;;4949678;28;19930;-83
2021/08/21 11:47:30;;;;;;;;;;;20.70;99.90;;;;;;4968384;28;19930;-83
2021/08/21 11:49:56;;;;;;;;;;;20.70;99.90;;;;;;4953211;28;20310;-84
2021/08/21 11:52:22;;;;;;;;;;;20.70;99.90;;;;;;4970829;28;19923;-83
2021/08/21 11:54:48;;;;;;;;;;;20.80;99.90;;;;;;4968227;28;20428;-84
2021/08/21 11:57:14;;;;;;;;;;;20.80;99.90;;;;;;4941410;28;19950;-83
2021/08/21 11:59:40;;;;;;;;;;;20.80;99.90;;;;;;4941471;28;19926;-83
2021/08/21 12:02:09;;;;;;;;;;;20.80;99.90;;;;;;4943254;28;19953;-84
2021/08/21 12:04:34;;;;;;;;;;;20.80;99.90;;;;;;4962068;28;19933;-83
2021/08/21 12:07:00;;;;;;;;;;;20.90;99.90;;;;;;4943125;28;20356;-84
2021/08/21 12:09:26;;;;;;;;;;;20.90;99.90;;;;;;4941204;28;19926;-83
2021/08/21 12:11:52;;;;;;;;;;;20.90;99.90;;;;;;4946832;28;19933;-83
2021/08/21 12:14:20;;;;;;;;;;;21.00;99.90;;;;;;4958306;28;19938;-84
2021/08/21 12:16:47;;;;;;;;;;;20.90;99.90;;;;;;4957128;28;19972;-83
2021/08/21 12:19:13;;;;;;;;;;;20.90;99.90;;;;;;4958351;28;20424;-83
2021/08/21 12:21:39;;;;;;;;;;;20.90;99.90;;;;;;4926834;28;20016;-83
2021/08/21 12:24:09;;;;;;;;;;;20.90;99.90;;;;;;4959781;28;19926;-83
2021/08/21 12:26:39;;;;;;;;;;;21.00;99.90;;;;;;4963712;28;20271;-83
2021/08/21 12:29:06;;;;;;;;;;;21.00;99.90;;;;;;4982745;28;19926;-84
2021/08/21 12:31:33;;;;;;;;;;;21.00;99.90;;;;;;4977043;28;19926;-83
2021/08/21 12:33:58;;;;;;;;;;;21.10;99.90;;;;;;4974197;28;19976;-84
2021/08/21 12:36:24;;;;;;;;;;;21.10;99.90;;;;;;4971859;28;20469;-83
2021/08/21 12:39:08;;;;;;;;;;;21.10;99.90;;;;;;4976470;28;19945;-84
2021/08/21 12:41:35;;;;;;;;;;;21.20;99.90;;;;;;4967923;28;19928;-84
2021/08/21 12:44:06;;;;;;;;;;;21.20;99.90;;;;;;4955318;28;19932;-85
2021/08/21 12:46:32;;;;;;;;;;;21.20;99.90;;;;;;4950756;28;19930;-85
2021/08/21 12:49:10;;;;;;;;;;;21.30;99.90;;;;;;4935686;28;19926;-85
2021/08/21 12:51:40;;;;;;;;;;;21.40;99.90;;;;;;4954179;28;19930;-85
2021/08/21 12:54:10;;;;;;;;;;;21.40;99.90;;;;;;4965773;28;19922;-85
2021/08/21 12:56:36;;;;;;;;;;;21.50;99.90;;;;;;4972351;28;20377;-85
2021/08/21 12:59:09;;;;;;;;;;;21.50;99.90;;;;;;4970143;28;20006;-85
2021/08/21 13:01:34;;;;;;;;;;;21.50;99.90;;;;;;4965182;28;19922;-85
2021/08/21 13:04:04;;;;;;;;;;;21.50;99.90;;;;;;4963809;28;19932;-86
2021/08/21 13:06:30;;;;;;;;;;;21.60;99.90;;;;;;4929150;28;19930;-85
2021/08/21 13:08:56;;;;;;;;;;;21.60;99.90;;;;;;4971911;28;19977;-85
2021/08/21 13:11:21;;;;;;;;;;;21.60;99.90;;;;;;4963571;28;19926;-85
2021/08/21 13:13:47;;;;;;;;;;;21.60;99.90;;;;;;4983253;28;19936;-85
2021/08/21 13:16:13;;;;;;;;;;;21.60;99.90;;;;;;4961375;28;20449;-85
2021/08/21 13:18:39;;;;;;;;;;;21.60;99.90;;;;;;4958367;28;19934;-85
2021/08/21 13:21:06;;;;;;;;;;;21.50;99.90;;;;;;4954149;28;19992;-86
2021/08/21 13:23:32;;;;;;;;;;;21.60;99.90;;;;;;4964877;28;19929;-85
2021/08/21 13:25:57;;;;;;;;;;;21.60;99.90;;;;;;4962016;28;19930;-85
2021/08/21 13:28:24;;;;;;;;;;;21.60;99.90;;;;;;4956455;28;19926;-86
2021/08/21 13:30:50;;;;;;;;;;;21.60;99.90;;;;;;4971406;28;20014;-85
2021/08/21 13:33:16;;;;;;;;;;;21.60;99.90;;;;;;4956630;28;19926;-95
2021/08/21 13:35:42;;;;;;;;;;;21.70;99.90;;;;;;4957137;28;19933;-85
2021/08/21 13:38:12;;;;;;;;;;;21.70;99.90;;;;;;4939456;28;19926;-85
2021/08/21 13:40:38;;;;;;;;;;;21.80;99.90;;;;;;4956901;28;19926;-85
2021/08/21 13:43:03;;;;;;;;;;;21.90;99.90;;;;;;4953077;28;19922;-86
2021/08/21 13:45:31;;;;;;;;;;;22.00;99.90;;;;;;4954879;28;20506;-86
2021/08/21 13:47:58;;;;;;;;;;;22.00;99.90;;;;;;4969085;28;19928;-85
2021/08/21 13:50:24;;;;;;;;;;;22.10;99.90;;;;;;4954284;28;19930;-85
2021/08/21 13:52:49;;;;;;;;;;;22.00;99.90;;;;;;4973988;28;19976;-85
2021/08/21 13:55:15;;;;;;;;;;;22.00;99.90;;;;;;4953176;28;19937;-85
2021/08/21 13:57:41;;;;;;;;;;;22.00;99.90;;;;;;4965696;28;20441;-85
2021/08/21 14:00:07;;;;;;;;;;;22.00;99.90;;;;;;4953431;28;19958;-85
2021/08/21 14:02:33;;;;;;;;;;;22.00;99.90;;;;;;4973268;28;19933;-84
2021/08/21 14:04:59;;;;;;;;;;;22.00;99.90;;;;;;4971470;28;19921;-85
2021/08/21 14:07:24;;;;;;;;;;;21.90;99.90;;;;;;4971923;28;19922;-85
2021/08/21 14:09:50;;;;;;;;;;;21.80;99.90;;;;;;4955185;28;19933;-85
2021/08/21 14:12:16;;;;;;;;;;;21.70;99.90;;;;;;4970579;28;19926;-84
2021/08/21 14:14:41;;;;;;;;;;;21.70;99.90;;;;;;4972764;28;19985;-85
2021/08/21 14:17:07;;;;;;;;;;;21.60;99.90;;;;;;4940182;28;20040;-85
2021/08/21 14:19:33;;;;;;;;;;;21.50;99.90;;;;;;4953860;28;19926;-85
2021/08/21 14:21:59;;;;;;;;;;;21.50;99.90;;;;;;4954066;28;19926;-84
2021/08/21 14:24:24;;;;;;;;;;;21.40;99.90;;;;;;4971769;28;19935;-85
2021/08/21 14:26:50;;;;;;;;;;;21.40;99.90;;;;;;4957252;28;19945;-85
2021/08/21 14:29:16;;;;;;;;;;;21.40;99.90;;;;;;4954169;28;20037;-85